sensor_id;sensor_type;location;lat;lon;timestamp;P1;durP1;ratioP1;P2;durP2;ratioP2
12623;SDS011;6377;42.836;23.998;2024-03-08T00:01:06;5.20;;;4.00;;
12623;SDS011;6377;42.836;23.998;2024-03-08T00:03:35;5.60;;;4.40;;
12623;SDS011;6377;42.836;23.998;2024-03-08T00:06:02;6.07;;;4.47;;
12623;SDS011;6377;42.836;23.998;2024-03-08T00:08:31;6.03;;;4.80;;
12623;SDS011;6377;42.836;23.998;2024-03-08T00:10:58;6.33;;;4.80;;
12623;SDS011;6377;42.836;23.998;2024-03-08T00:13:26;6.17;;;4.77;;
12623;SDS011;6377;42.836;23.998;2024-03-08T00:15:53;7.23;;;4.80;;
12623;SDS011;6377;42.836;23.998;2024-03-08T00:18:22;7.13;;;5.30;;
12623;SDS011;6377;42.836;23.998;2024-03-08T00:20:51;8.43;;;5.60;;
12623;SDS011;6377;42.836;23.998;2024-03-08T00:23:18;10.07;;;6.23;;
12623;SDS011;6377;42.836;23.998;2024-03-08T00:25:46;6.43;;;4.63;;
12623;SDS011;6377;42.836;23.998;2024-03-08T00:28:13;13.87;;;8.67;;
12623;SDS011;6377;42.836;23.998;2024-03-08T00:30:42;6.23;;;4.80;;
12623;SDS011;6377;42.836;23.998;2024-03-08T00:33:10;23.13;;;13.53;;
12623;SDS011;6377;42.836;23.998;2024-03-08T00:35:38;14.73;;;9.50;;
12623;SDS011;6377;42.836;23.998;2024-03-08T00:38:07;17.13;;;10.23;;
12623;SDS011;6377;42.836;23.998;2024-03-08T00:40:34;21.63;;;11.70;;
12623;SDS011;6377;42.836;23.998;2024-03-08T00:43:01;45.67;;;22.53;;
12623;SDS011;6377;42.836;23.998;2024-03-08T00:45:29;11.90;;;7.07;;
12623;SDS011;6377;42.836;23.998;2024-03-08T00:47:56;4.70;;;3.37;;
12623;SDS011;6377;42.836;23.998;2024-03-08T00:50:24;5.70;;;3.60;;
12623;SDS011;6377;42.836;23.998;2024-03-08T00:52:51;4.90;;;3.20;;
12623;SDS011;6377;42.836;23.998;2024-03-08T00:55:20;9.20;;;6.33;;
12623;SDS011;6377;42.836;23.998;2024-03-08T00:57:47;10.87;;;6.37;;
12623;SDS011;6377;42.836;23.998;2024-03-08T01:00:14;29.00;;;16.93;;
12623;SDS011;6377;42.836;23.998;2024-03-08T01:02:42;8.30;;;5.10;;
12623;SDS011;6377;42.836;23.998;2024-03-08T01:05:09;3.67;;;3.07;;
12623;SDS011;6377;42.836;23.998;2024-03-08T01:07:36;2.87;;;2.30;;
12623;SDS011;6377;42.836;23.998;2024-03-08T01:10:03;9.23;;;5.47;;
12623;SDS011;6377;42.836;23.998;2024-03-08T01:12:36;7.60;;;3.60;;
12623;SDS011;6377;42.836;23.998;2024-03-08T01:15:03;3.57;;;2.73;;
12623;SDS011;6377;42.836;23.998;2024-03-08T01:17:31;3.37;;;2.67;;
12623;SDS011;6377;42.836;23.998;2024-03-08T01:19:58;2.57;;;2.20;;
12623;SDS011;6377;42.836;23.998;2024-03-08T01:22:25;3.30;;;2.80;;
12623;SDS011;6377;42.836;23.998;2024-03-08T01:24:53;2.60;;;2.40;;
12623;SDS011;6377;42.836;23.998;2024-03-08T01:27:20;3.57;;;2.83;;
12623;SDS011;6377;42.836;23.998;2024-03-08T01:29:49;3.43;;;2.50;;
12623;SDS011;6377;42.836;23.998;2024-03-08T01:32:16;2.70;;;2.40;;
12623;SDS011;6377;42.836;23.998;2024-03-08T01:34:44;3.93;;;2.60;;
12623;SDS011;6377;42.836;23.998;2024-03-08T01:37:11;3.43;;;2.83;;
12623;SDS011;6377;42.836;23.998;2024-03-08T01:39:40;3.13;;;2.73;;
12623;SDS011;6377;42.836;23.998;2024-03-08T01:42:07;3.33;;;2.60;;
12623;SDS011;6377;42.836;23.998;2024-03-08T01:44:37;3.47;;;3.17;;
12623;SDS011;6377;42.836;23.998;2024-03-08T01:47:06;4.20;;;3.57;;
12623;SDS011;6377;42.836;23.998;2024-03-08T01:49:33;4.03;;;3.30;;
12623;SDS011;6377;42.836;23.998;2024-03-08T01:52:01;3.30;;;3.00;;
12623;SDS011;6377;42.836;23.998;2024-03-08T01:54:28;4.77;;;3.33;;
12623;SDS011;6377;42.836;23.998;2024-03-08T01:56:56;4.03;;;3.27;;
12623;SDS011;6377;42.836;23.998;2024-03-08T01:59:24;5.13;;;3.90;;
12623;SDS011;6377;42.836;23.998;2024-03-08T02:01:52;4.87;;;3.90;;
12623;SDS011;6377;42.836;23.998;2024-03-08T02:04:23;6.73;;;5.00;;
12623;SDS011;6377;42.836;23.998;2024-03-08T02:06:51;18.23;;;10.57;;
12623;SDS011;6377;42.836;23.998;2024-03-08T02:09:18;16.03;;;10.03;;
12623;SDS011;6377;42.836;23.998;2024-03-08T02:11:45;18.87;;;11.17;;
12623;SDS011;6377;42.836;23.998;2024-03-08T02:14:13;10.53;;;5.07;;
12623;SDS011;6377;42.836;23.998;2024-03-08T02:16:40;5.93;;;4.40;;
12623;SDS011;6377;42.836;23.998;2024-03-08T02:19:07;4.83;;;3.87;;
12623;SDS011;6377;42.836;23.998;2024-03-08T02:21:36;5.07;;;3.67;;
12623;SDS011;6377;42.836;23.998;2024-03-08T02:24:04;3.53;;;3.13;;
12623;SDS011;6377;42.836;23.998;2024-03-08T02:26:32;3.30;;;2.63;;
12623;SDS011;6377;42.836;23.998;2024-03-08T02:28:59;3.43;;;3.03;;
12623;SDS011;6377;42.836;23.998;2024-03-08T02:31:27;4.03;;;3.13;;
12623;SDS011;6377;42.836;23.998;2024-03-08T02:33:54;3.53;;;3.07;;
12623;SDS011;6377;42.836;23.998;2024-03-08T02:36:22;3.30;;;3.00;;
12623;SDS011;6377;42.836;23.998;2024-03-08T02:38:50;3.93;;;2.80;;
12623;SDS011;6377;42.836;23.998;2024-03-08T02:41:18;2.83;;;2.40;;
12623;SDS011;6377;42.836;23.998;2024-03-08T02:43:45;2.80;;;2.60;;
12623;SDS011;6377;42.836;23.998;2024-03-08T02:46:13;2.83;;;2.60;;
12623;SDS011;6377;42.836;23.998;2024-03-08T02:48:40;4.00;;;3.60;;
12623;SDS011;6377;42.836;23.998;2024-03-08T02:51:08;3.13;;;2.80;;
12623;SDS011;6377;42.836;23.998;2024-03-08T02:53:36;2.77;;;2.43;;
12623;SDS011;6377;42.836;23.998;2024-03-08T02:56:04;2.80;;;2.10;;
12623;SDS011;6377;42.836;23.998;2024-03-08T02:58:34;2.87;;;2.37;;
12623;SDS011;6377;42.836;23.998;2024-03-08T03:01:01;2.90;;;2.60;;
12623;SDS011;6377;42.836;23.998;2024-03-08T03:03:29;3.20;;;2.80;;
12623;SDS011;6377;42.836;23.998;2024-03-08T03:05:56;3.30;;;2.60;;
12623;SDS011;6377;42.836;23.998;2024-03-08T03:08:23;3.63;;;2.87;;
12623;SDS011;6377;42.836;23.998;2024-03-08T03:10:50;3.03;;;2.70;;
12623;SDS011;6377;42.836;23.998;2024-03-08T03:13:19;3.20;;;2.60;;
12623;SDS011;6377;42.836;23.998;2024-03-08T03:15:46;3.37;;;2.80;;
12623;SDS011;6377;42.836;23.998;2024-03-08T03:18:13;5.20;;;4.00;;
12623;SDS011;6377;42.836;23.998;2024-03-08T03:20:41;6.10;;;4.60;;
12623;SDS011;6377;42.836;23.998;2024-03-08T03:23:08;7.33;;;5.03;;
12623;SDS011;6377;42.836;23.998;2024-03-08T03:25:39;6.07;;;4.57;;
12623;SDS011;6377;42.836;23.998;2024-03-08T03:28:06;7.13;;;5.00;;
12623;SDS011;6377;42.836;23.998;2024-03-08T03:30:37;6.90;;;4.93;;
12623;SDS011;6377;42.836;23.998;2024-03-08T03:33:05;7.53;;;5.10;;
12623;SDS011;6377;42.836;23.998;2024-03-08T03:35:32;7.43;;;5.67;;
12623;SDS011;6377;42.836;23.998;2024-03-08T03:37:59;9.40;;;6.60;;
12623;SDS011;6377;42.836;23.998;2024-03-08T03:40:31;7.63;;;5.30;;
12623;SDS011;6377;42.836;23.998;2024-03-08T03:42:59;7.37;;;5.23;;
12623;SDS011;6377;42.836;23.998;2024-03-08T03:45:26;7.83;;;5.30;;
12623;SDS011;6377;42.836;23.998;2024-03-08T03:47:55;6.97;;;5.17;;
12623;SDS011;6377;42.836;23.998;2024-03-08T03:50:22;7.53;;;5.00;;
12623;SDS011;6377;42.836;23.998;2024-03-08T03:52:50;7.40;;;4.87;;
12623;SDS011;6377;42.836;23.998;2024-03-08T03:55:17;6.20;;;4.70;;
12623;SDS011;6377;42.836;23.998;2024-03-08T03:57:45;6.50;;;4.70;;
12623;SDS011;6377;42.836;23.998;2024-03-08T04:00:12;8.17;;;5.10;;
12623;SDS011;6377;42.836;23.998;2024-03-08T04:02:40;8.93;;;6.17;;
12623;SDS011;6377;42.836;23.998;2024-03-08T04:05:09;8.13;;;5.33;;
12623;SDS011;6377;42.836;23.998;2024-03-08T04:07:37;7.23;;;5.00;;
12623;SDS011;6377;42.836;23.998;2024-03-08T04:10:05;6.77;;;4.57;;
12623;SDS011;6377;42.836;23.998;2024-03-08T04:12:34;7.30;;;5.60;;
12623;SDS011;6377;42.836;23.998;2024-03-08T04:15:01;9.17;;;6.07;;
12623;SDS011;6377;42.836;23.998;2024-03-08T04:17:28;7.30;;;5.17;;
12623;SDS011;6377;42.836;23.998;2024-03-08T04:19:56;6.80;;;5.33;;
12623;SDS011;6377;42.836;23.998;2024-03-08T04:22:25;8.07;;;5.80;;
12623;SDS011;6377;42.836;23.998;2024-03-08T04:24:53;7.77;;;5.90;;
12623;SDS011;6377;42.836;23.998;2024-03-08T04:27:21;8.57;;;5.63;;
12623;SDS011;6377;42.836;23.998;2024-03-08T04:29:48;9.57;;;6.30;;
12623;SDS011;6377;42.836;23.998;2024-03-08T04:32:15;9.90;;;8.03;;
12623;SDS011;6377;42.836;23.998;2024-03-08T04:34:42;10.03;;;7.17;;
12623;SDS011;6377;42.836;23.998;2024-03-08T04:37:09;7.63;;;6.27;;
12623;SDS011;6377;42.836;23.998;2024-03-08T04:39:40;7.63;;;5.50;;
12623;SDS011;6377;42.836;23.998;2024-03-08T04:42:07;7.23;;;6.00;;
12623;SDS011;6377;42.836;23.998;2024-03-08T04:44:36;7.13;;;5.17;;
12623;SDS011;6377;42.836;23.998;2024-03-08T04:47:04;7.57;;;4.73;;
12623;SDS011;6377;42.836;23.998;2024-03-08T04:49:32;6.67;;;4.70;;
12623;SDS011;6377;42.836;23.998;2024-03-08T04:52:00;20.93;;;16.43;;
12623;SDS011;6377;42.836;23.998;2024-03-08T04:54:29;17.73;;;13.13;;
12623;SDS011;6377;42.836;23.998;2024-03-08T04:56:57;8.80;;;6.53;;
12623;SDS011;6377;42.836;23.998;2024-03-08T04:59:26;8.30;;;6.97;;
12623;SDS011;6377;42.836;23.998;2024-03-08T05:01:53;6.37;;;4.63;;
12623;SDS011;6377;42.836;23.998;2024-03-08T05:04:20;8.07;;;5.90;;
12623;SDS011;6377;42.836;23.998;2024-03-08T05:06:47;7.73;;;5.67;;
12623;SDS011;6377;42.836;23.998;2024-03-08T05:09:14;7.87;;;5.63;;
12623;SDS011;6377;42.836;23.998;2024-03-08T05:11:43;42.93;;;24.17;;
12623;SDS011;6377;42.836;23.998;2024-03-08T05:14:12;48.27;;;30.20;;
12623;SDS011;6377;42.836;23.998;2024-03-08T05:16:41;63.43;;;37.40;;
12623;SDS011;6377;42.836;23.998;2024-03-08T05:19:09;33.00;;;21.13;;
12623;SDS011;6377;42.836;23.998;2024-03-08T05:21:36;11.87;;;8.47;;
12623;SDS011;6377;42.836;23.998;2024-03-08T05:24:03;7.80;;;5.27;;
12623;SDS011;6377;42.836;23.998;2024-03-08T05:26:30;10.00;;;7.77;;
12623;SDS011;6377;42.836;23.998;2024-03-08T05:28:58;11.03;;;8.90;;
12623;SDS011;6377;42.836;23.998;2024-03-08T05:31:27;7.60;;;5.80;;
12623;SDS011;6377;42.836;23.998;2024-03-08T05:33:54;12.27;;;9.37;;
12623;SDS011;6377;42.836;23.998;2024-03-08T05:36:21;9.03;;;6.37;;
12623;SDS011;6377;42.836;23.998;2024-03-08T05:38:49;11.60;;;8.40;;
12623;SDS011;6377;42.836;23.998;2024-03-08T05:41:16;29.43;;;15.83;;
12623;SDS011;6377;42.836;23.998;2024-03-08T05:43:44;14.93;;;9.40;;
12623;SDS011;6377;42.836;23.998;2024-03-08T05:46:11;12.77;;;9.30;;
12623;SDS011;6377;42.836;23.998;2024-03-08T05:48:44;8.30;;;6.53;;
12623;SDS011;6377;42.836;23.998;2024-03-08T05:51:11;7.10;;;5.70;;
12623;SDS011;6377;42.836;23.998;2024-03-08T05:53:38;9.70;;;7.23;;
12623;SDS011;6377;42.836;23.998;2024-03-08T05:56:06;8.03;;;5.63;;
12623;SDS011;6377;42.836;23.998;2024-03-08T05:58:34;9.27;;;5.30;;
12623;SDS011;6377;42.836;23.998;2024-03-08T06:01:01;11.67;;;8.30;;
12623;SDS011;6377;42.836;23.998;2024-03-08T06:03:33;13.80;;;9.87;;
12623;SDS011;6377;42.836;23.998;2024-03-08T06:06:01;14.93;;;10.13;;
12623;SDS011;6377;42.836;23.998;2024-03-08T06:08:28;18.73;;;13.00;;
12623;SDS011;6377;42.836;23.998;2024-03-08T06:10:56;16.53;;;11.03;;
12623;SDS011;6377;42.836;23.998;2024-03-08T06:13:24;12.97;;;8.93;;
12623;SDS011;6377;42.836;23.998;2024-03-08T06:15:51;10.10;;;7.10;;
12623;SDS011;6377;42.836;23.998;2024-03-08T06:18:18;10.13;;;7.60;;
12623;SDS011;6377;42.836;23.998;2024-03-08T06:20:45;11.93;;;8.40;;
12623;SDS011;6377;42.836;23.998;2024-03-08T06:23:14;12.70;;;8.37;;
12623;SDS011;6377;42.836;23.998;2024-03-08T06:25:43;11.13;;;8.27;;
12623;SDS011;6377;42.836;23.998;2024-03-08T06:28:10;10.47;;;7.30;;
12623;SDS011;6377;42.836;23.998;2024-03-08T06:30:37;12.70;;;8.20;;
12623;SDS011;6377;42.836;23.998;2024-03-08T06:33:04;10.73;;;7.77;;
12623;SDS011;6377;42.836;23.998;2024-03-08T06:35:32;10.07;;;7.53;;
12623;SDS011;6377;42.836;23.998;2024-03-08T06:38:03;31.27;;;16.27;;
12623;SDS011;6377;42.836;23.998;2024-03-08T06:40:31;18.27;;;10.87;;
12623;SDS011;6377;42.836;23.998;2024-03-08T06:42:58;14.30;;;9.40;;
12623;SDS011;6377;42.836;23.998;2024-03-08T06:45:25;11.13;;;7.67;;
12623;SDS011;6377;42.836;23.998;2024-03-08T06:47:53;15.07;;;10.23;;
12623;SDS011;6377;42.836;23.998;2024-03-08T06:50:21;14.67;;;10.23;;
12623;SDS011;6377;42.836;23.998;2024-03-08T06:52:48;18.77;;;12.17;;
12623;SDS011;6377;42.836;23.998;2024-03-08T06:55:18;12.40;;;9.37;;
12623;SDS011;6377;42.836;23.998;2024-03-08T06:57:47;17.90;;;11.90;;
12623;SDS011;6377;42.836;23.998;2024-03-08T07:00:15;16.90;;;10.73;;
12623;SDS011;6377;42.836;23.998;2024-03-08T07:02:46;19.30;;;11.97;;
12623;SDS011;6377;42.836;23.998;2024-03-08T07:05:13;13.07;;;9.43;;
12623;SDS011;6377;42.836;23.998;2024-03-08T07:07:41;11.40;;;9.77;;
12623;SDS011;6377;42.836;23.998;2024-03-08T07:10:09;12.77;;;9.03;;
12623;SDS011;6377;42.836;23.998;2024-03-08T07:12:36;18.87;;;12.17;;
12623;SDS011;6377;42.836;23.998;2024-03-08T07:15:06;16.37;;;11.20;;
12623;SDS011;6377;42.836;23.998;2024-03-08T07:17:34;9.80;;;7.37;;
12623;SDS011;6377;42.836;23.998;2024-03-08T07:20:01;13.07;;;8.07;;
12623;SDS011;6377;42.836;23.998;2024-03-08T07:22:37;17.77;;;12.00;;
12623;SDS011;6377;42.836;23.998;2024-03-08T07:25:04;24.23;;;14.60;;
12623;SDS011;6377;42.836;23.998;2024-03-08T07:27:45;16.90;;;10.47;;
12623;SDS011;6377;42.836;23.998;2024-03-08T07:30:15;17.40;;;11.27;;
12623;SDS011;6377;42.836;23.998;2024-03-08T07:32:58;11.23;;;7.60;;
12623;SDS011;6377;42.836;23.998;2024-03-08T07:35:28;9.83;;;6.93;;
12623;SDS011;6377;42.836;23.998;2024-03-08T07:37:56;9.97;;;6.90;;
12623;SDS011;6377;42.836;23.998;2024-03-08T07:40:25;8.30;;;6.20;;
12623;SDS011;6377;42.836;23.998;2024-03-08T07:42:52;8.17;;;5.63;;
12623;SDS011;6377;42.836;23.998;2024-03-08T07:45:20;8.93;;;6.27;;
12623;SDS011;6377;42.836;23.998;2024-03-08T07:47:49;8.37;;;5.77;;
12623;SDS011;6377;42.836;23.998;2024-03-08T07:50:18;8.07;;;5.60;;
12623;SDS011;6377;42.836;23.998;2024-03-08T07:52:48;8.57;;;5.67;;
12623;SDS011;6377;42.836;23.998;2024-03-08T07:55:15;6.83;;;4.90;;
12623;SDS011;6377;42.836;23.998;2024-03-08T07:57:42;8.30;;;5.47;;
12623;SDS011;6377;42.836;23.998;2024-03-08T08:00:13;9.47;;;6.57;;
12623;SDS011;6377;42.836;23.998;2024-03-08T08:02:44;10.97;;;8.07;;
12623;SDS011;6377;42.836;23.998;2024-03-08T08:05:12;9.93;;;6.63;;
12623;SDS011;6377;42.836;23.998;2024-03-08T08:07:39;9.83;;;7.30;;
12623;SDS011;6377;42.836;23.998;2024-03-08T08:10:09;7.77;;;5.83;;
12623;SDS011;6377;42.836;23.998;2024-03-08T08:12:42;8.87;;;5.73;;
12623;SDS011;6377;42.836;23.998;2024-03-08T08:15:09;7.13;;;5.33;;
12623;SDS011;6377;42.836;23.998;2024-03-08T08:17:37;6.13;;;5.13;;
12623;SDS011;6377;42.836;23.998;2024-03-08T08:20:07;10.43;;;6.67;;
12623;SDS011;6377;42.836;23.998;2024-03-08T08:22:35;7.30;;;5.90;;
12623;SDS011;6377;42.836;23.998;2024-03-08T08:25:03;9.10;;;6.97;;
12623;SDS011;6377;42.836;23.998;2024-03-08T08:27:31;8.40;;;5.57;;
12623;SDS011;6377;42.836;23.998;2024-03-08T08:29:58;8.07;;;5.97;;
12623;SDS011;6377;42.836;23.998;2024-03-08T08:32:25;10.00;;;7.17;;
12623;SDS011;6377;42.836;23.998;2024-03-08T08:34:52;9.20;;;6.77;;
12623;SDS011;6377;42.836;23.998;2024-03-08T08:37:21;10.40;;;6.43;;
12623;SDS011;6377;42.836;23.998;2024-03-08T08:39:48;10.23;;;6.00;;
12623;SDS011;6377;42.836;23.998;2024-03-08T08:42:16;12.70;;;8.43;;
12623;SDS011;6377;42.836;23.998;2024-03-08T08:44:43;8.50;;;6.30;;
12623;SDS011;6377;42.836;23.998;2024-03-08T08:47:11;10.60;;;6.53;;
12623;SDS011;6377;42.836;23.998;2024-03-08T08:49:38;8.93;;;6.40;;
12623;SDS011;6377;42.836;23.998;2024-03-08T08:52:05;8.87;;;6.13;;
12623;SDS011;6377;42.836;23.998;2024-03-08T08:54:34;7.73;;;5.93;;
12623;SDS011;6377;42.836;23.998;2024-03-08T08:57:01;7.17;;;5.57;;
12623;SDS011;6377;42.836;23.998;2024-03-08T08:59:32;9.40;;;6.93;;
12623;SDS011;6377;42.836;23.998;2024-03-08T09:02:01;11.43;;;8.27;;
12623;SDS011;6377;42.836;23.998;2024-03-08T09:04:28;16.70;;;10.47;;
12623;SDS011;6377;42.836;23.998;2024-03-08T09:06:56;12.87;;;9.10;;
12623;SDS011;6377;42.836;23.998;2024-03-08T09:09:23;13.17;;;10.07;;
12623;SDS011;6377;42.836;23.998;2024-03-08T09:11:53;10.07;;;7.90;;
12623;SDS011;6377;42.836;23.998;2024-03-08T09:14:20;7.03;;;5.30;;
12623;SDS011;6377;42.836;23.998;2024-03-08T09:16:47;7.47;;;5.57;;
12623;SDS011;6377;42.836;23.998;2024-03-08T09:19:14;12.60;;;9.37;;
12623;SDS011;6377;42.836;23.998;2024-03-08T09:21:42;9.33;;;6.40;;
12623;SDS011;6377;42.836;23.998;2024-03-08T09:24:09;6.23;;;4.60;;
12623;SDS011;6377;42.836;23.998;2024-03-08T09:26:37;6.37;;;4.60;;
12623;SDS011;6377;42.836;23.998;2024-03-08T09:29:08;12.47;;;9.53;;
12623;SDS011;6377;42.836;23.998;2024-03-08T09:31:36;7.70;;;5.57;;
12623;SDS011;6377;42.836;23.998;2024-03-08T09:34:04;8.70;;;5.97;;
12623;SDS011;6377;42.836;23.998;2024-03-08T09:36:33;7.93;;;6.20;;
12623;SDS011;6377;42.836;23.998;2024-03-08T09:39:00;10.33;;;6.40;;
12623;SDS011;6377;42.836;23.998;2024-03-08T09:41:28;23.23;;;10.20;;
12623;SDS011;6377;42.836;23.998;2024-03-08T09:43:56;14.30;;;7.40;;
12623;SDS011;6377;42.836;23.998;2024-03-08T09:46:26;17.63;;;10.80;;
12623;SDS011;6377;42.836;23.998;2024-03-08T09:48:53;7.00;;;4.83;;
12623;SDS011;6377;42.836;23.998;2024-03-08T09:51:21;8.77;;;5.60;;
12623;SDS011;6377;42.836;23.998;2024-03-08T09:53:53;7.87;;;5.30;;
12623;SDS011;6377;42.836;23.998;2024-03-08T09:56:21;12.83;;;9.27;;
12623;SDS011;6377;42.836;23.998;2024-03-08T09:58:50;13.43;;;8.73;;
12623;SDS011;6377;42.836;23.998;2024-03-08T10:01:46;9.13;;;6.00;;
12623;SDS011;6377;42.836;23.998;2024-03-08T10:04:13;7.87;;;5.53;;
12623;SDS011;6377;42.836;23.998;2024-03-08T10:06:42;6.47;;;4.90;;
12623;SDS011;6377;42.836;23.998;2024-03-08T10:09:11;6.30;;;4.73;;
12623;SDS011;6377;42.836;23.998;2024-03-08T10:11:39;8.07;;;6.03;;
12623;SDS011;6377;42.836;23.998;2024-03-08T10:14:07;6.50;;;5.20;;
12623;SDS011;6377;42.836;23.998;2024-03-08T10:16:36;10.87;;;6.67;;
12623;SDS011;6377;42.836;23.998;2024-03-08T10:19:06;10.50;;;8.33;;
12623;SDS011;6377;42.836;23.998;2024-03-08T10:21:46;10.60;;;8.33;;
12623;SDS011;6377;42.836;23.998;2024-03-08T10:24:14;11.00;;;8.77;;
12623;SDS011;6377;42.836;23.998;2024-03-08T10:26:42;9.33;;;7.13;;
12623;SDS011;6377;42.836;23.998;2024-03-08T10:29:09;9.43;;;6.90;;
12623;SDS011;6377;42.836;23.998;2024-03-08T10:31:42;5.73;;;4.77;;
12623;SDS011;6377;42.836;23.998;2024-03-08T10:34:12;6.00;;;4.40;;
12623;SDS011;6377;42.836;23.998;2024-03-08T10:36:39;6.30;;;4.03;;
12623;SDS011;6377;42.836;23.998;2024-03-08T10:39:09;14.30;;;9.57;;
12623;SDS011;6377;42.836;23.998;2024-03-08T10:41:49;12.37;;;8.27;;
12623;SDS011;6377;42.836;23.998;2024-03-08T10:44:25;9.67;;;6.70;;
12623;SDS011;6377;42.836;23.998;2024-03-08T10:47:09;13.30;;;8.43;;
12623;SDS011;6377;42.836;23.998;2024-03-08T10:49:49;16.13;;;10.90;;
12623;SDS011;6377;42.836;23.998;2024-03-08T10:52:21;21.63;;;15.33;;
12623;SDS011;6377;42.836;23.998;2024-03-08T10:54:48;21.30;;;17.17;;
12623;SDS011;6377;42.836;23.998;2024-03-08T10:57:19;15.50;;;12.87;;
12623;SDS011;6377;42.836;23.998;2024-03-08T10:59:49;23.20;;;17.63;;
12623;SDS011;6377;42.836;23.998;2024-03-08T11:02:17;31.60;;;21.00;;
12623;SDS011;6377;42.836;23.998;2024-03-08T11:04:47;20.80;;;16.07;;
12623;SDS011;6377;42.836;23.998;2024-03-08T11:07:15;18.50;;;11.50;;
12623;SDS011;6377;42.836;23.998;2024-03-08T11:09:45;15.03;;;11.17;;
12623;SDS011;6377;42.836;23.998;2024-03-08T11:12:21;12.17;;;8.53;;
12623;SDS011;6377;42.836;23.998;2024-03-08T11:14:50;7.53;;;5.70;;
12623;SDS011;6377;42.836;23.998;2024-03-08T11:17:25;12.97;;;9.50;;
12623;SDS011;6377;42.836;23.998;2024-03-08T11:20:10;12.97;;;9.33;;
12623;SDS011;6377;42.836;23.998;2024-03-08T11:22:41;11.37;;;8.70;;
12623;SDS011;6377;42.836;23.998;2024-03-08T11:28:14;10.23;;;6.70;;
12623;SDS011;6377;42.836;23.998;2024-03-08T11:30:46;8.70;;;7.17;;
12623;SDS011;6377;42.836;23.998;2024-03-08T11:33:35;9.60;;;5.83;;
12623;SDS011;6377;42.836;23.998;2024-03-08T11:36:04;45.60;;;24.87;;
12623;SDS011;6377;42.836;23.998;2024-03-08T11:38:39;23.13;;;13.97;;
12623;SDS011;6377;42.836;23.998;2024-03-08T11:41:07;43.10;;;26.07;;
12623;SDS011;6377;42.836;23.998;2024-03-08T11:43:34;13.57;;;9.10;;
12623;SDS011;6377;42.836;23.998;2024-03-08T11:46:07;22.70;;;14.20;;
12623;SDS011;6377;42.836;23.998;2024-03-08T11:48:34;16.27;;;9.60;;
12623;SDS011;6377;42.836;23.998;2024-03-08T11:51:04;18.90;;;13.10;;
12623;SDS011;6377;42.836;23.998;2024-03-08T11:53:32;10.80;;;8.23;;
12623;SDS011;6377;42.836;23.998;2024-03-08T11:56:05;8.30;;;6.00;;
12623;SDS011;6377;42.836;23.998;2024-03-08T11:58:34;11.03;;;6.87;;
12623;SDS011;6377;42.836;23.998;2024-03-08T12:01:03;8.47;;;6.73;;
12623;SDS011;6377;42.836;23.998;2024-03-08T12:03:31;9.53;;;5.80;;
12623;SDS011;6377;42.836;23.998;2024-03-08T12:05:59;19.70;;;12.63;;
12623;SDS011;6377;42.836;23.998;2024-03-08T12:08:31;13.73;;;7.83;;
12623;SDS011;6377;42.836;23.998;2024-03-08T12:10:58;9.93;;;7.27;;
12623;SDS011;6377;42.836;23.998;2024-03-08T12:13:26;10.87;;;7.80;;
12623;SDS011;6377;42.836;23.998;2024-03-08T12:15:56;9.33;;;7.73;;
12623;SDS011;6377;42.836;23.998;2024-03-08T12:18:25;8.10;;;5.77;;
12623;SDS011;6377;42.836;23.998;2024-03-08T12:21:03;9.60;;;5.37;;
12623;SDS011;6377;42.836;23.998;2024-03-08T12:23:34;7.93;;;6.00;;
12623;SDS011;6377;42.836;23.998;2024-03-08T12:26:11;7.13;;;5.40;;
12623;SDS011;6377;42.836;23.998;2024-03-08T12:28:39;6.77;;;4.70;;
12623;SDS011;6377;42.836;23.998;2024-03-08T12:31:07;6.53;;;5.30;;
12623;SDS011;6377;42.836;23.998;2024-03-08T12:33:36;6.43;;;5.17;;
12623;SDS011;6377;42.836;23.998;2024-03-08T12:36:04;8.33;;;5.53;;
12623;SDS011;6377;42.836;23.998;2024-03-08T12:38:34;6.00;;;5.40;;
12623;SDS011;6377;42.836;23.998;2024-03-08T12:41:03;4.83;;;4.03;;
12623;SDS011;6377;42.836;23.998;2024-03-08T12:43:30;4.07;;;3.50;;
12623;SDS011;6377;42.836;23.998;2024-03-08T12:45:59;5.17;;;4.20;;
12623;SDS011;6377;42.836;23.998;2024-03-08T12:48:26;5.57;;;4.40;;
12623;SDS011;6377;42.836;23.998;2024-03-08T12:50:53;6.73;;;5.30;;
12623;SDS011;6377;42.836;23.998;2024-03-08T12:53:20;9.63;;;5.20;;
12623;SDS011;6377;42.836;23.998;2024-03-08T12:55:49;21.47;;;11.17;;
12623;SDS011;6377;42.836;23.998;2024-03-08T12:58:17;19.73;;;11.17;;
12623;SDS011;6377;42.836;23.998;2024-03-08T13:00:45;10.60;;;8.40;;
12623;SDS011;6377;42.836;23.998;2024-03-08T13:03:12;7.67;;;5.40;;
12623;SDS011;6377;42.836;23.998;2024-03-08T13:05:39;12.57;;;9.10;;
12623;SDS011;6377;42.836;23.998;2024-03-08T13:08:07;8.37;;;6.43;;
12623;SDS011;6377;42.836;23.998;2024-03-08T13:10:38;22.30;;;13.87;;
12623;SDS011;6377;42.836;23.998;2024-03-08T13:13:09;17.20;;;14.17;;
12623;SDS011;6377;42.836;23.998;2024-03-08T13:15:37;12.57;;;9.20;;
12623;SDS011;6377;42.836;23.998;2024-03-08T13:18:07;17.70;;;9.47;;
12623;SDS011;6377;42.836;23.998;2024-03-08T13:20:35;14.33;;;8.97;;
12623;SDS011;6377;42.836;23.998;2024-03-08T13:23:03;11.60;;;8.33;;
12623;SDS011;6377;42.836;23.998;2024-03-08T13:25:31;12.47;;;7.60;;
12623;SDS011;6377;42.836;23.998;2024-03-08T13:27:59;23.90;;;13.57;;
12623;SDS011;6377;42.836;23.998;2024-03-08T13:30:27;13.77;;;9.67;;
12623;SDS011;6377;42.836;23.998;2024-03-08T13:32:55;16.20;;;10.77;;
12623;SDS011;6377;42.836;23.998;2024-03-08T13:35:21;10.90;;;8.23;;
12623;SDS011;6377;42.836;23.998;2024-03-08T13:37:52;12.13;;;8.20;;
12623;SDS011;6377;42.836;23.998;2024-03-08T13:40:19;10.53;;;8.10;;
12623;SDS011;6377;42.836;23.998;2024-03-08T13:42:46;16.73;;;13.13;;
12623;SDS011;6377;42.836;23.998;2024-03-08T13:45:14;17.83;;;11.93;;
12623;SDS011;6377;42.836;23.998;2024-03-08T13:47:49;13.53;;;8.77;;
12623;SDS011;6377;42.836;23.998;2024-03-08T13:50:16;7.53;;;6.30;;
12623;SDS011;6377;42.836;23.998;2024-03-08T13:52:46;10.47;;;7.97;;
12623;SDS011;6377;42.836;23.998;2024-03-08T13:55:16;6.93;;;5.67;;
12623;SDS011;6377;42.836;23.998;2024-03-08T13:57:44;12.83;;;9.40;;
12623;SDS011;6377;42.836;23.998;2024-03-08T14:00:12;13.00;;;7.17;;
12623;SDS011;6377;42.836;23.998;2024-03-08T14:02:40;11.80;;;8.17;;
12623;SDS011;6377;42.836;23.998;2024-03-08T14:05:09;6.73;;;5.57;;
12623;SDS011;6377;42.836;23.998;2024-03-08T14:07:38;10.87;;;6.50;;
12623;SDS011;6377;42.836;23.998;2024-03-08T14:10:06;7.73;;;5.80;;
12623;SDS011;6377;42.836;23.998;2024-03-08T14:12:35;15.67;;;7.73;;
12623;SDS011;6377;42.836;23.998;2024-03-08T14:15:03;7.60;;;6.57;;
12623;SDS011;6377;42.836;23.998;2024-03-08T14:17:31;9.07;;;7.50;;
12623;SDS011;6377;42.836;23.998;2024-03-08T14:19:59;10.23;;;5.40;;
12623;SDS011;6377;42.836;23.998;2024-03-08T14:22:28;19.50;;;10.97;;
12623;SDS011;6377;42.836;23.998;2024-03-08T14:24:56;7.43;;;5.00;;
12623;SDS011;6377;42.836;23.998;2024-03-08T14:27:24;6.27;;;5.60;;
12623;SDS011;6377;42.836;23.998;2024-03-08T14:29:52;7.07;;;5.80;;
12623;SDS011;6377;42.836;23.998;2024-03-08T14:32:20;10.00;;;8.10;;
12623;SDS011;6377;42.836;23.998;2024-03-08T14:34:48;12.17;;;8.63;;
12623;SDS011;6377;42.836;23.998;2024-03-08T14:37:15;7.20;;;5.53;;
12623;SDS011;6377;42.836;23.998;2024-03-08T14:39:45;18.43;;;11.13;;
12623;SDS011;6377;42.836;23.998;2024-03-08T14:47:11;15.33;;;9.57;;
12623;SDS011;6377;42.836;23.998;2024-03-08T14:49:39;28.10;;;20.93;;
12623;SDS011;6377;42.836;23.998;2024-03-08T14:52:06;14.47;;;9.83;;
12623;SDS011;6377;42.836;23.998;2024-03-08T14:57:23;10.20;;;6.90;;
12623;SDS011;6377;42.836;23.998;2024-03-08T14:59:50;11.30;;;7.40;;